CheckWX is a tool to help pilots better visualize weather data.  It is not intended as a substitute for an official pre-flight weather briefing.

23:06:01 UTC

LELL TAF
Sabadell Airport
Sabadell, Spain
TAF LELL 150200Z 1503/1603 VRB03KT 9999 SCT030 TX30/1512Z TN19/1506Z TEMPO 1515/1519 12010KT

Jul-15@
03:00 UTC

Jul-15 @ 03:00 UTC

Jul-16@
03:00 UTC

Jul-16 @ 03:00 UTC

TAF LELL 150200Z 1503/1603 VRB03KT 9999 SCT030 TX30/1512Z TN19/1506Z
Wind
  • Variable at 3 KTS
Cloud Levels
  • Scattered at 3,000' AGL

Jul-15@
15:00 UTC

Jul-15 @ 15:00 UTC

Jul-15@
19:00 UTC

Jul-15 @ 19:00 UTC

TEMPO 1515/1519 12010KT

Expired

Wind
  • 120° at 10 KTS
Cloud Levels